Oriente Noble — 3FVF5 — position and weather

sailwx.info

Track history (hours):
 
Tides and Currents Weather Stations Pressure Air Temp Water Temp Dewpoint Dewpoint Depression Visibility Wind Speed Wind Dir Waves Ship Positions

Oriente Noble

Last reported at 2018-Apr-18 13:10 UTC. Time now 2018-Apr-22 14:04 UTC.
Position N 34°54' E 128°49'.

Type: Cargo ship. MMSI: 356638000.

Date/timePositionNaut miles runAvg speedWind from/ knotsBaromVisibWave heightAir tempDewpointWater temp
2018-Apr-18 13:10N 34°54' E 128°49'1 5.3
2018-Apr-18 12:57N 34°54' E 128°50'4210.4
2018-Apr-18 08:54N 34°42' E 129°39'410.8
2018-Apr-18 08:30N 34°40' E 129°43'510.5
2018-Apr-18 08:00N 34°37' E 129°49'510.5
2018-Apr-18 07:30N 34°34' E 129°54'510.4
2018-Apr-18 07:00N 34°31' E 129°59'510.4
2018-Apr-18 06:28N 34°28' E 130°05'510.2
2018-Apr-18 06:00N 34°25' E 130°10'510.3
2018-Apr-18 05:30N 34°22' E 130°15'510.4
2018-Apr-18 05:00N 34°20' E 130°20'510.3
2018-Apr-18 04:30N 34°17' E 130°25'510.2
2018-Apr-18 04:00N 34°14' E 130°30'510.3
2018-Apr-18 03:30N 34°10' E 130°35'510.4
2018-Apr-18 03:00N 34°07' E 130°40'510.5
2018-Apr-18 02:30N 34°04' E 130°45'510.3
2018-Apr-18 02:00N 34°01' E 130°50'510.5
2018-Apr-18 01:30N 33°56' E 130°53'4 8.7
2018-Apr-18 01:00N 33°58' E 130°57'510.2
2018-Apr-18 00:30N 33°57' E 131°04'611.2
2018-Apr-18 00:00N 33°54' E 131°09'611.1
2018-Apr-17 23:30N 33°52' E 131°15'511.0
2018-Apr-17 23:00N 33°51' E 131°21'611.1
2018-Apr-17 22:30N 33°50' E 131°28'611.1
2018-Apr-17 22:00N 33°48' E 131°35'611.2
2018-Apr-17 21:30N 33°47' E 131°41'710.9
2018-Apr-17 20:51N 33°45' E 131°50'410.9
2018-Apr-17 20:27N 33°44' E 131°55'610.8
2018-Apr-17 19:53N 33°43' E 132°02'710.8
2018-Apr-17 19:12N 33°43' E 132°11'211.6
2018-Apr-17 19:00N 33°43' E 132°13'911.8
2018-Apr-17 18:13N 33°46' E 132°24'311.7
2018-Apr-17 18:00N 33°47' E 132°27'612.0
2018-Apr-17 17:30N 33°50' E 132°33'611.8
2018-Apr-17 16:58N 33°55' E 132°38'611.6
2018-Apr-17 16:28N 33°59' E 132°43'79 9.0
2018-Apr-17 07:38N 34°24' E 134°14'1 9.1
2018-Apr-17 07:30N 34°25' E 134°15'5 8.9
2018-Apr-17 06:59N 34°26' E 134°21'5 9.4
2018-Apr-17 06:30N 34°28' E 134°26'5 9.6
2018-Apr-17 06:01N 34°31' E 134°30'5 9.4
2018-Apr-17 05:30N 34°35' E 134°34'5 9.2
2018-Apr-17 05:00N 34°38' E 134°37'5 9.5
2018-Apr-17 04:30N 34°43' E 134°38'4 6.8
2018-Apr-17 03:58N 34°46' E 134°39'0 0.0
2018-Apr-16 23:44N 34°46' E 134°39'0 0.0
2018-Apr-16 23:26N 34°46' E 134°39'0 0.0
2018-Apr-16 22:38N 34°46' E 134°39'0 0.0
2018-Apr-16 22:23N 34°46' E 134°39'1 3.5
2018-Apr-16 22:00N 34°45' E 134°39'5 8.8
2018-Apr-16 21:27N 34°42' E 134°43'510.5
2018-Apr-16 21:00N 34°39' E 134°48'510.5
2018-Apr-16 20:30N 34°37' E 134°54'510.5
2018-Apr-16 20:01N 34°38' E 135°00'4 8.3
2018-Apr-16 19:30N 34°36' E 135°05'4 7.7
2018-Apr-16 19:00N 34°32' E 135°04'510.6
2018-Apr-16 18:30N 34°27' E 135°03'510.1
2018-Apr-16 18:00N 34°22' E 135°01'5 9.4
2018-Apr-16 17:30N 34°17' E 134°59'5 9.2
2018-Apr-16 17:00N 34°13' E 134°59'510.5
2018-Apr-16 16:30N 34°07' E 134°60'510.4
2018-Apr-16 16:00N 34°02' E 134°60'510.3
2018-Apr-16 15:30N 33°57' E 135°00'5 9.7
2018-Apr-16 15:00N 33°52' E 135°01'194 9.8
2018-Apr-15 19:18N 34°31' E 138°51'310.0
2018-Apr-15 19:00N 34°32' E 138°54'610.1
2018-Apr-15 18:21N 34°36' E 139°01'411.2
2018-Apr-15 18:00N 34°39' E 139°04'710.8
2018-Apr-15 17:22N 34°44' E 139°10'1110.2
2018-Apr-15 16:20N 34°51' E 139°19'12 9.7
2018-Apr-15 15:08N 34°59' E 139°30'210.3
2018-Apr-15 14:59N 34°60' E 139°31'510.6
2018-Apr-15 14:30N 35°03' E 139°36'611.3
2018-Apr-15 14:00N 35°07' E 139°41'611.5
2018-Apr-15 13:30N 35°12' E 139°45'510.4
2018-Apr-15 13:00N 35°17' E 139°45'611.3
2018-Apr-15 12:30N 35°22' E 139°42'610.9
2018-Apr-15 12:00N 35°26' E 139°46'611.5
2018-Apr-15 11:30N 35°30' E 139°52'611.3
2018-Apr-15 11:00N 35°34' E 139°57'2 4.0
2018-Apr-15 10:29N 35°36' E 139°58'0 0.0
2018-Apr-15 09:59N 35°36' E 139°58'0 0.2
2018-Apr-15 09:23N 35°36' E 139°58'0 0.1
2018-Apr-15 08:59N 35°36' E 139°58'0 0.0
2018-Apr-15 08:26N 35°36' E 139°58'0 0.0
2018-Apr-15 07:59N 35°36' E 139°58'0 0.0
2018-Apr-15 07:29N 35°36' E 139°58'0 0.0
2018-Apr-15 06:59N 35°36' E 139°58'0 0.0
2018-Apr-15 06:23N 35°36' E 139°58'0 0.0
2018-Apr-15 05:47N 35°36' E 139°58'0 0.0
2018-Apr-15 05:11N 35°36' E 139°58'0 0.0
2018-Apr-15 04:59N 35°36' E 139°58'0 0.0
2018-Apr-15 04:29N 35°36' E 139°58'0 0.0
2018-Apr-15 03:59N 35°36' E 139°58'0 0.0
2018-Apr-15 03:29N 35°36' E 139°58'0 0.1
2018-Apr-15 02:59N 35°36' E 139°58'0 0.1
2018-Apr-15 02:29N 35°36' E 139°58'0 0.0
2018-Apr-15 01:53N 35°36' E 139°58'0 0.0
2018-Apr-15 01:29N 35°36' E 139°58'0 0.0
2018-Apr-15 00:59N 35°36' E 139°58'0 0.0
2018-Apr-15 00:29N 35°36' E 139°58'0 0.0
2018-Apr-14 23:53N 35°36' E 139°58'0 0.0
2018-Apr-14 23:29N 35°36' E 139°58'0 0.0
2018-Apr-14 22:59N 35°36' E 139°58'0 0.0
2018-Apr-14 22:29N 35°36' E 139°58'0 0.0
2018-Apr-14 21:59N 35°36' E 139°58'0 0.0
2018-Apr-14 21:29N 35°36' E 139°58'0 0.0
2018-Apr-14 20:59N 35°36' E 139°58'0 0.0
2018-Apr-14 20:23N 35°36' E 139°58'0 0.0
2018-Apr-14 19:59N 35°36' E 139°58'0 0.0
2018-Apr-14 19:29N 35°36' E 139°58'0 0.1
2018-Apr-14 18:59N 35°36' E 139°58'0 0.0
2018-Apr-14 18:29N 35°36' E 139°58'0 0.1
2018-Apr-14 17:53N 35°36' E 139°58'0 0.0
2018-Apr-14 17:23N 35°36' E 139°58'0 0.0
2018-Apr-14 16:59N 35°36' E 139°58'0 0.0
2018-Apr-14 16:29N 35°36' E 139°58'0 0.0
2018-Apr-14 15:59N 35°36' E 139°58'0 0.1
2018-Apr-14 15:29N 35°36' E 139°58'0 0.0
2018-Apr-14 14:59N 35°36' E 139°58'0 0.0
2018-Apr-14 14:29N 35°36' E 139°58'0 0.2
2018-Apr-14 14:00N 35°35' E 139°58'5 8.9
2018-Apr-14 13:30N 35°32' E 139°56'511.0
2018-Apr-14 13:00N 35°28' E 139°51'510.9
2018-Apr-14 12:30N 35°24' E 139°46'510.7
2018-Apr-14 12:01N 35°19' E 139°44'5 9.7
2018-Apr-14 11:30N 35°14' E 139°47'510.7
2018-Apr-14 11:00N 35°09' E 139°46'611.3
2018-Apr-14 10:30N 35°04' E 139°45'510.6
2018-Apr-14 10:00N 34°58' E 139°44'4 8.7
2018-Apr-14 09:30N 34°55' E 139°46'11 8.7
2018-Apr-14 08:14N 34°53' E 139°60'2 7.8
2018-Apr-14 07:59N 34°54' E 140°01'5 6.5
2018-Apr-14 07:13N 34°56' E 140°07'  
2018-Apr-08 17:37N 35°04' E 140°21'112.5
2018-Apr-08 17:30N 35°03' E 140°19'712.5
2018-Apr-08 16:59N 34°60' E 140°13'911.7
2018-Apr-08 16:15N 34°55' E 140°04'1210.3
2018-Apr-08 15:03N 34°51' E 139°50'211.6
2018-Apr-08 14:54N 34°53' E 139°48'1110.3
2018-Apr-08 13:51N 35°03' E 139°44'410.3
2018-Apr-08 13:30N 35°06' E 139°45'  
Track history (hours):
 
Tides and Currents Weather Stations Pressure Air Temp Water Temp Dewpoint Dewpoint Depression Visibility Wind Speed Wind Dir Waves Ship Positions

Oriente Noble

Last reported at 2018-Apr-18 13:10 UTC. Time now 2018-Apr-22 14:04 UTC.
Position N 34°54' E 128°49'.

Type: Cargo ship. MMSI: 356638000.

Date/timePositionNaut miles runAvg speedWind from/ knotsBaromVisibWave heightAir tempDewpointWater temp
2018-Apr-18 13:10N 34°54' E 128°49'1 5.3
2018-Apr-18 12:57N 34°54' E 128°50'4210.4
2018-Apr-18 08:54N 34°42' E 129°39'410.8
2018-Apr-18 08:30N 34°40' E 129°43'510.5
2018-Apr-18 08:00N 34°37' E 129°49'510.5
2018-Apr-18 07:30N 34°34' E 129°54'510.4
2018-Apr-18 07:00N 34°31' E 129°59'510.4
2018-Apr-18 06:28N 34°28' E 130°05'510.2
2018-Apr-18 06:00N 34°25' E 130°10'510.3
2018-Apr-18 05:30N 34°22' E 130°15'510.4
2018-Apr-18 05:00N 34°20' E 130°20'510.3
2018-Apr-18 04:30N 34°17' E 130°25'510.2
2018-Apr-18 04:00N 34°14' E 130°30'510.3
2018-Apr-18 03:30N 34°10' E 130°35'510.4
2018-Apr-18 03:00N 34°07' E 130°40'510.5
2018-Apr-18 02:30N 34°04' E 130°45'510.3
2018-Apr-18 02:00N 34°01' E 130°50'510.5
2018-Apr-18 01:30N 33°56' E 130°53'4 8.7
2018-Apr-18 01:00N 33°58' E 130°57'510.2
2018-Apr-18 00:30N 33°57' E 131°04'611.2
2018-Apr-18 00:00N 33°54' E 131°09'611.1
2018-Apr-17 23:30N 33°52' E 131°15'511.0
2018-Apr-17 23:00N 33°51' E 131°21'611.1
2018-Apr-17 22:30N 33°50' E 131°28'611.1
2018-Apr-17 22:00N 33°48' E 131°35'611.2
2018-Apr-17 21:30N 33°47' E 131°41'710.9
2018-Apr-17 20:51N 33°45' E 131°50'410.9
2018-Apr-17 20:27N 33°44' E 131°55'610.8
2018-Apr-17 19:53N 33°43' E 132°02'710.8
2018-Apr-17 19:12N 33°43' E 132°11'211.6
2018-Apr-17 19:00N 33°43' E 132°13'911.8
2018-Apr-17 18:13N 33°46' E 132°24'311.7
2018-Apr-17 18:00N 33°47' E 132°27'612.0
2018-Apr-17 17:30N 33°50' E 132°33'611.8
2018-Apr-17 16:58N 33°55' E 132°38'611.6
2018-Apr-17 16:28N 33°59' E 132°43'79 9.0
2018-Apr-17 07:38N 34°24' E 134°14'1 9.1
2018-Apr-17 07:30N 34°25' E 134°15'5 8.9
2018-Apr-17 06:59N 34°26' E 134°21'5 9.4
2018-Apr-17 06:30N 34°28' E 134°26'5 9.6
2018-Apr-17 06:01N 34°31' E 134°30'5 9.4
2018-Apr-17 05:30N 34°35' E 134°34'5 9.2
2018-Apr-17 05:00N 34°38' E 134°37'5 9.5
2018-Apr-17 04:30N 34°43' E 134°38'4 6.8
2018-Apr-17 03:58N 34°46' E 134°39'0 0.0
2018-Apr-16 23:44N 34°46' E 134°39'0 0.0
2018-Apr-16 23:26N 34°46' E 134°39'0 0.0
2018-Apr-16 22:38N 34°46' E 134°39'0 0.0
2018-Apr-16 22:23N 34°46' E 134°39'1 3.5
2018-Apr-16 22:00N 34°45' E 134°39'5 8.8
2018-Apr-16 21:27N 34°42' E 134°43'510.5
2018-Apr-16 21:00N 34°39' E 134°48'510.5
2018-Apr-16 20:30N 34°37' E 134°54'510.5
2018-Apr-16 20:01N 34°38' E 135°00'4 8.3
2018-Apr-16 19:30N 34°36' E 135°05'4 7.7
2018-Apr-16 19:00N 34°32' E 135°04'510.6
2018-Apr-16 18:30N 34°27' E 135°03'510.1
2018-Apr-16 18:00N 34°22' E 135°01'5 9.4
2018-Apr-16 17:30N 34°17' E 134°59'5 9.2
2018-Apr-16 17:00N 34°13' E 134°59'510.5
2018-Apr-16 16:30N 34°07' E 134°60'510.4
2018-Apr-16 16:00N 34°02' E 134°60'510.3
2018-Apr-16 15:30N 33°57' E 135°00'5 9.7
2018-Apr-16 15:00N 33°52' E 135°01'194 9.8
2018-Apr-15 19:18N 34°31' E 138°51'310.0
2018-Apr-15 19:00N 34°32' E 138°54'610.1
2018-Apr-15 18:21N 34°36' E 139°01'411.2
2018-Apr-15 18:00N 34°39' E 139°04'710.8
2018-Apr-15 17:22N 34°44' E 139°10'1110.2
2018-Apr-15 16:20N 34°51' E 139°19'12 9.7
2018-Apr-15 15:08N 34°59' E 139°30'210.3
2018-Apr-15 14:59N 34°60' E 139°31'510.6
2018-Apr-15 14:30N 35°03' E 139°36'611.3
2018-Apr-15 14:00N 35°07' E 139°41'611.5
2018-Apr-15 13:30N 35°12' E 139°45'510.4
2018-Apr-15 13:00N 35°17' E 139°45'611.3
2018-Apr-15 12:30N 35°22' E 139°42'610.9
2018-Apr-15 12:00N 35°26' E 139°46'611.5
2018-Apr-15 11:30N 35°30' E 139°52'611.3
2018-Apr-15 11:00N 35°34' E 139°57'2 4.0
2018-Apr-15 10:29N 35°36' E 139°58'0 0.0
2018-Apr-15 09:59N 35°36' E 139°58'0 0.2
2018-Apr-15 09:23N 35°36' E 139°58'0 0.1
2018-Apr-15 08:59N 35°36' E 139°58'0 0.0
2018-Apr-15 08:26N 35°36' E 139°58'0 0.0
2018-Apr-15 07:59N 35°36' E 139°58'0 0.0
2018-Apr-15 07:29N 35°36' E 139°58'0 0.0
2018-Apr-15 06:59N 35°36' E 139°58'0 0.0
2018-Apr-15 06:23N 35°36' E 139°58'0 0.0
2018-Apr-15 05:47N 35°36' E 139°58'0 0.0
2018-Apr-15 05:11N 35°36' E 139°58'0 0.0
2018-Apr-15 04:59N 35°36' E 139°58'0 0.0
2018-Apr-15 04:29N 35°36' E 139°58'0 0.0
2018-Apr-15 03:59N 35°36' E 139°58'0 0.0
2018-Apr-15 03:29N 35°36' E 139°58'0 0.1
2018-Apr-15 02:59N 35°36' E 139°58'0 0.1
2018-Apr-15 02:29N 35°36' E 139°58'0 0.0
2018-Apr-15 01:53N 35°36' E 139°58'0 0.0
2018-Apr-15 01:29N 35°36' E 139°58'0 0.0
2018-Apr-15 00:59N 35°36' E 139°58'0 0.0
2018-Apr-15 00:29N 35°36' E 139°58'0 0.0
2018-Apr-14 23:53N 35°36' E 139°58'0 0.0
2018-Apr-14 23:29N 35°36' E 139°58'0 0.0
2018-Apr-14 22:59N 35°36' E 139°58'0 0.0
2018-Apr-14 22:29N 35°36' E 139°58'0 0.0
2018-Apr-14 21:59N 35°36' E 139°58'0 0.0
2018-Apr-14 21:29N 35°36' E 139°58'0 0.0
2018-Apr-14 20:59N 35°36' E 139°58'0 0.0
2018-Apr-14 20:23N 35°36' E 139°58'0 0.0
2018-Apr-14 19:59N 35°36' E 139°58'0 0.0
2018-Apr-14 19:29N 35°36' E 139°58'0 0.1
2018-Apr-14 18:59N 35°36' E 139°58'0 0.0
2018-Apr-14 18:29N 35°36' E 139°58'0 0.1
2018-Apr-14 17:53N 35°36' E 139°58'0 0.0
2018-Apr-14 17:23N 35°36' E 139°58'0 0.0
2018-Apr-14 16:59N 35°36' E 139°58'0 0.0
2018-Apr-14 16:29N 35°36' E 139°58'0 0.0
2018-Apr-14 15:59N 35°36' E 139°58'0 0.1
2018-Apr-14 15:29N 35°36' E 139°58'0 0.0
2018-Apr-14 14:59N 35°36' E 139°58'0 0.0
2018-Apr-14 14:29N 35°36' E 139°58'0 0.2
2018-Apr-14 14:00N 35°35' E 139°58'5 8.9
2018-Apr-14 13:30N 35°32' E 139°56'511.0
2018-Apr-14 13:00N 35°28' E 139°51'510.9
2018-Apr-14 12:30N 35°24' E 139°46'510.7
2018-Apr-14 12:01N 35°19' E 139°44'5 9.7
2018-Apr-14 11:30N 35°14' E 139°47'510.7
2018-Apr-14 11:00N 35°09' E 139°46'611.3
2018-Apr-14 10:30N 35°04' E 139°45'510.6
2018-Apr-14 10:00N 34°58' E 139°44'4 8.7
2018-Apr-14 09:30N 34°55' E 139°46'11 8.7
2018-Apr-14 08:14N 34°53' E 139°60'2 7.8
2018-Apr-14 07:59N 34°54' E 140°01'5 6.5
2018-Apr-14 07:13N 34°56' E 140°07'  
2018-Apr-08 17:37N 35°04' E 140°21'112.5
2018-Apr-08 17:30N 35°03' E 140°19'712.5
2018-Apr-08 16:59N 34°60' E 140°13'911.7
2018-Apr-08 16:15N 34°55' E 140°04'1210.3
2018-Apr-08 15:03N 34°51' E 139°50'211.6
2018-Apr-08 14:54N 34°53' E 139°48'1110.3
2018-Apr-08 13:51N 35°03' E 139°44'410.3
2018-Apr-08 13:30N 35°06' E 139°45'  

Dump ship's entire track history